Terminal Aerodrome Forecast
Issued by NWS

Home | Current Version | Previous Version | Text Only | Print | Product List | Glossary On
Versions: 1 2 3 4 5 6 7 8 9 10 11 12 13 14 15 16 17 18 19 20 21 22 23 24 25 26 27 28 29 30 31 32
000
FTUS44 KHGX 271433 AAA
TAFLBX
TAF AMD
KLBX 271433Z 2715/2812 01008KT P6SM SCT025
      TEMPO 2716/2719 SHRA BKN030
     FM271900 03009KT P6SM VCTS FEW025 SCT035CB BKN120
      TEMPO 2720/2723 4SM TSRA
     FM280300 03005KT P6SM VCTS FEW015 SCT030CB BKN120
      TEMPO 2803/2806 3SM TSRA BKN025CB OVC100
     FM280700 VRB03KT P6SM -SHRA VCTS SCT030 BKN100CB=

USA.gov is the U.S. government's official web portal to all federal, state and local government web resources and services.